createdAt,value
2023-02-09T00:00:17.705Z,103533.63
2023-02-09T00:03:09.959Z,103532.73
2023-02-09T00:05:42.202Z,103534.25
2023-02-09T00:08:14.558Z,103536.17
2023-02-09T00:10:47.103Z,103538.08
2023-02-09T00:13:25.398Z,103537.38
2023-02-09T00:16:01.821Z,103535.29
2023-02-09T00:18:35.403Z,103536.67
2023-02-09T00:21:10.812Z,103539.95
2023-02-09T00:23:43.989Z,103540.66
2023-02-09T00:26:16.214Z,103541.52
2023-02-09T00:28:48.609Z,103536.52
2023-02-09T00:31:21.278Z,103538.61
2023-02-09T00:33:53.926Z,103535.84
2023-02-09T00:36:26.256Z,103536.55
2023-02-09T00:38:58.771Z,103535.02
2023-02-09T00:41:48.223Z,103531.20
2023-02-09T00:44:20.597Z,103533.83
2023-02-09T00:46:53.486Z,103531.07
2023-02-09T00:49:27.318Z,103528.29
2023-02-09T00:51:59.790Z,103516.31
2023-02-09T00:54:34.216Z,103511.60
2023-02-09T00:57:06.740Z,103511.43
2023-02-09T00:59:40.915Z,103516.09
2023-02-09T01:02:13.272Z,103517.79
2023-02-09T01:04:45.652Z,103520.73
2023-02-09T01:07:17.978Z,103521.59
2023-02-09T01:09:50.467Z,103511.00
2023-02-09T01:12:22.737Z,103503.35
2023-02-09T01:14:55.297Z,103493.25
2023-02-09T01:17:27.627Z,103496.55
2023-02-09T01:20:00.515Z,103493.22
2023-02-09T01:22:32.889Z,103490.77
2023-02-09T01:25:05.671Z,103490.05
2023-02-09T01:27:38.150Z,103490.52
2023-02-09T01:30:12.612Z,103486.16
2023-02-09T01:32:45.300Z,103486.48
2023-02-09T01:35:18.346Z,103475.89
2023-02-09T01:37:50.694Z,103476.74
2023-02-09T01:40:23.076Z,103476.85
2023-02-09T01:42:55.465Z,103477.34
2023-02-09T01:45:35.419Z,103474.02
2023-02-09T01:48:07.888Z,103472.96
2023-02-09T01:50:44.567Z,103477.30
2023-02-09T01:53:18.777Z,103475.73
2023-02-09T01:55:55.444Z,103468.09
2023-02-09T01:58:29.154Z,103470.88
2023-02-09T02:01:02.280Z,103467.40
2023-02-09T02:03:34.942Z,103465.30
2023-02-09T02:06:11.962Z,103470.34
2023-02-09T02:08:50.201Z,103469.31
2023-02-09T02:11:24.527Z,103475.39
2023-02-09T02:13:57.036Z,103475.04
2023-02-09T02:16:47.996Z,103478.14
2023-02-09T02:19:54.378Z,103479.00
2023-02-09T02:22:53.841Z,103489.05
2023-02-09T02:25:57.178Z,103485.36
2023-02-09T02:29:10.922Z,103484.40
2023-02-09T02:32:10.847Z,103481.98
2023-02-09T02:34:52.357Z,103484.29
2023-02-09T02:37:38.673Z,103478.30
2023-02-09T02:40:22.515Z,103477.71
2023-02-09T02:43:01.378Z,103474.19
2023-02-09T02:45:41.724Z,103468.90
2023-02-09T02:48:32.374Z,103463.30
2023-02-09T02:51:09.059Z,103459.27
2023-02-09T02:53:44.769Z,103458.55
2023-02-09T02:56:22.576Z,103455.25
2023-02-09T02:58:58.328Z,103452.11
2023-02-09T03:01:35.391Z,103451.54
2023-02-09T03:04:09.358Z,103454.64
2023-02-09T03:06:41.799Z,103451.56
2023-02-09T03:09:14.892Z,103451.08
2023-02-09T03:11:50.700Z,103446.61
2023-02-09T03:14:34.776Z,103452.02
2023-02-09T03:17:20.429Z,103445.13
2023-02-09T03:19:57.359Z,103445.70
2023-02-09T03:22:36.274Z,103445.21
2023-02-09T03:25:15.632Z,103443.99
2023-02-09T03:27:55.241Z,103445.90
2023-02-09T03:30:28.350Z,103449.40
2023-02-09T03:33:01.174Z,103443.89
2023-02-09T03:35:40.045Z,103447.20
2023-02-09T03:38:12.316Z,103455.52
2023-02-09T03:40:44.781Z,103452.06
2023-02-09T03:43:17.345Z,103451.72
2023-02-09T03:45:49.758Z,103449.13
2023-02-09T03:48:22.032Z,103446.19
2023-02-09T03:50:54.335Z,103447.42
2023-02-09T03:53:26.845Z,103443.75
2023-02-09T03:55:59.135Z,103443.60
2023-02-09T03:58:31.818Z,103449.00
2023-02-09T04:01:08.195Z,103446.26
2023-02-09T04:03:41.070Z,103448.86
2023-02-09T04:06:13.287Z,103449.58
2023-02-09T04:08:45.551Z,103450.60
2023-02-09T04:11:17.878Z,103441.89
2023-02-09T04:13:50.266Z,103439.62
2023-02-09T04:16:22.803Z,103436.84
2023-02-09T04:18:55.201Z,103435.48
2023-02-09T04:21:27.571Z,103430.96
2023-02-09T04:23:59.929Z,103434.40
2023-02-09T04:26:32.417Z,103434.37
2023-02-09T04:29:04.847Z,103436.09
2023-02-09T04:31:37.512Z,103433.33
2023-02-09T04:34:09.951Z,103434.24
2023-02-09T04:36:42.363Z,103435.80
2023-02-09T04:39:14.669Z,103437.89
2023-02-09T04:41:47.180Z,103439.06
2023-02-09T04:44:19.482Z,103437.83
2023-02-09T04:46:51.948Z,103437.48
2023-02-09T04:49:24.231Z,103432.79
2023-02-09T04:51:56.599Z,103434.15
2023-02-09T04:54:29.074Z,103435.52
2023-02-09T04:57:15.055Z,103435.86
2023-02-09T04:59:47.374Z,103432.91
2023-02-09T05:02:19.756Z,103427.98
2023-02-09T05:04:52.114Z,103430.59
2023-02-09T05:07:26.653Z,103430.39
2023-02-09T05:09:58.949Z,103432.15
2023-02-09T05:12:31.189Z,103433.88
2023-02-09T05:15:03.660Z,103432.48
2023-02-09T05:17:36.038Z,103435.90
2023-02-09T05:20:10.441Z,103441.10
2023-02-09T05:22:42.782Z,103440.55
2023-02-09T05:25:15.105Z,103444.33
2023-02-09T05:27:47.376Z,103448.27
2023-02-09T05:30:19.906Z,103446.52
2023-02-09T05:32:52.103Z,103438.66
2023-02-09T05:35:24.430Z,103448.20
2023-02-09T05:37:56.671Z,103446.94
2023-02-09T05:40:28.979Z,103447.41
2023-02-09T05:43:02.634Z,103449.10
2023-02-09T05:45:34.984Z,103452.03
2023-02-09T05:48:07.638Z,103455.16
2023-02-09T05:50:40.214Z,103452.45
2023-02-09T05:53:14.439Z,103448.82
2023-02-09T05:55:47.499Z,103456.46
2023-02-09T05:58:19.793Z,103460.27
2023-02-09T06:00:52.070Z,103459.77
2023-02-09T06:03:24.344Z,103454.63
2023-02-09T06:05:56.732Z,103453.96
2023-02-09T06:08:29.043Z,103453.85
2023-02-09T06:11:02.834Z,103457.39
2023-02-09T06:13:35.244Z,103453.27
2023-02-09T06:16:09.016Z,103450.39
2023-02-09T06:18:41.289Z,103446.33
2023-02-09T06:21:14.096Z,103447.11
2023-02-09T06:23:46.512Z,103442.06
2023-02-09T06:26:19.815Z,103444.67
2023-02-09T06:28:52.243Z,103445.91
2023-02-09T06:31:24.759Z,103446.73
2023-02-09T06:33:57.195Z,103440.77
2023-02-09T06:36:29.607Z,103442.56
2023-02-09T06:39:02.020Z,103440.90
2023-02-09T06:41:34.214Z,103441.69
2023-02-09T06:44:06.848Z,103443.85
2023-02-09T06:46:40.089Z,103443.02
2023-02-09T06:49:12.364Z,103442.35
2023-02-09T06:51:44.678Z,103446.19
2023-02-09T06:54:17.038Z,103445.14
2023-02-09T06:56:49.353Z,103444.59
2023-02-09T06:59:21.747Z,103449.23
2023-02-09T07:01:55.291Z,103453.10
2023-02-09T07:04:28.057Z,103452.06
2023-02-09T07:07:00.390Z,103452.54
2023-02-09T07:09:32.583Z,103453.17
2023-02-09T07:12:05.147Z,103456.25
2023-02-09T07:14:37.411Z,103453.88
2023-02-09T07:17:09.675Z,103456.44
2023-02-09T07:19:41.974Z,103461.07
2023-02-09T07:22:14.459Z,103464.33
2023-02-09T07:24:46.885Z,103465.90
2023-02-09T07:27:19.367Z,103467.99
2023-02-09T07:29:51.935Z,103468.34
2023-02-09T07:32:24.350Z,103471.73
2023-02-09T07:34:56.651Z,103476.64
2023-02-09T07:37:28.959Z,103477.05
2023-02-09T07:40:01.612Z,103478.53
2023-02-09T07:42:33.938Z,103478.93
2023-02-09T07:45:09.151Z,103473.88
2023-02-09T07:47:42.475Z,103476.30
2023-02-09T07:50:14.682Z,103476.11
2023-02-09T07:52:46.947Z,103480.06
2023-02-09T07:55:19.216Z,103476.11
2023-02-09T07:57:51.762Z,103474.43
2023-02-09T08:00:25.660Z,103469.06
2023-02-09T08:02:58.098Z,103471.13
2023-02-09T08:05:36.440Z,103475.05
2023-02-09T08:08:08.830Z,103472.48
2023-02-09T08:10:42.846Z,103470.36
2023-02-09T08:13:16.464Z,103464.48
2023-02-09T08:15:52.922Z,103465.70
2023-02-09T08:18:29.374Z,103469.61
2023-02-09T08:21:01.887Z,103465.20
2023-02-09T08:23:37.586Z,103459.79
2023-02-09T08:26:13.863Z,103458.98
2023-02-09T08:28:47.061Z,103464.71
2023-02-09T08:31:21.907Z,103458.25
2023-02-09T08:33:54.361Z,103455.28
2023-02-09T08:36:26.798Z,103455.73
2023-02-09T08:38:59.123Z,103457.92
2023-02-09T08:41:31.438Z,103464.47
2023-02-09T08:44:04.278Z,103469.68
2023-02-09T08:46:37.674Z,103469.30
2023-02-09T08:49:10.130Z,103470.02
2023-02-09T08:51:42.407Z,103464.52
2023-02-09T08:54:15.948Z,103464.02
2023-02-09T08:56:48.269Z,103458.36
2023-02-09T08:59:22.241Z,103458.79
2023-02-09T09:01:54.762Z,103455.73
2023-02-09T09:04:27.028Z,103450.09
2023-02-09T09:06:59.350Z,103447.69
2023-02-09T09:09:31.814Z,103449.33
2023-02-09T09:12:04.041Z,103446.23
2023-02-09T09:14:38.129Z,103449.75
2023-02-09T09:17:10.490Z,103448.97
2023-02-09T09:19:43.018Z,103449.85
2023-02-09T09:22:15.406Z,103449.27
2023-02-09T09:24:47.746Z,103441.42
2023-02-09T09:27:20.037Z,103441.66
2023-02-09T09:29:52.426Z,103443.70
2023-02-09T09:32:25.174Z,103438.80
2023-02-09T09:34:59.185Z,103434.08
2023-02-09T09:37:31.461Z,103428.39
2023-02-09T09:40:03.774Z,103425.91
2023-02-09T09:42:39.606Z,103424.83
2023-02-09T09:45:17.243Z,103421.04
2023-02-09T09:47:51.735Z,103421.17
2023-02-09T09:50:27.170Z,103418.20
2023-02-09T09:53:03.212Z,103413.11
2023-02-09T09:55:35.046Z,103411.29
2023-02-09T09:58:09.434Z,103408.66
2023-02-09T10:00:43.757Z,103404.02
2023-02-09T10:03:19.257Z,103401.44
2023-02-09T10:05:53.378Z,103399.05
2023-02-09T10:08:34.003Z,103402.21
2023-02-09T10:11:11.395Z,103396.30
2023-02-09T10:13:49.331Z,103392.34
2023-02-09T10:16:25.040Z,103389.05
2023-02-09T10:18:58.761Z,103386.01
2023-02-09T10:21:32.927Z,103381.98
2023-02-09T10:24:16.744Z,103383.40
2023-02-09T10:27:05.479Z,103384.27
2023-02-09T10:29:38.481Z,103383.52
2023-02-09T10:32:20.417Z,103373.11
2023-02-09T10:34:54.953Z,103371.30
2023-02-09T10:37:36.067Z,103373.88
2023-02-09T10:40:19.164Z,103362.16
2023-02-09T10:42:59.561Z,103377.27
2023-02-09T10:45:39.757Z,103374.48
2023-02-09T10:48:21.208Z,103367.42
2023-02-09T10:50:56.117Z,103367.21
2023-02-09T10:53:31.727Z,103364.59
2023-02-09T10:56:07.481Z,103363.35
2023-02-09T10:58:40.844Z,103360.38
2023-02-09T11:01:23.596Z,103357.04
2023-02-09T11:04:04.448Z,103355.02
2023-02-09T11:06:48.026Z,103355.34
2023-02-09T11:09:25.586Z,103350.06
2023-02-09T11:11:58.518Z,103344.59
2023-02-09T11:14:31.581Z,103348.02
2023-02-09T11:17:17.779Z,103348.05
2023-02-09T11:20:13.855Z,103349.89
2023-02-09T11:22:56.294Z,103346.31
2023-02-09T11:25:33.971Z,103332.03
2023-02-09T11:28:20.622Z,103334.36
2023-02-09T11:31:13.153Z,103331.00
2023-02-09T11:33:52.726Z,103339.02
2023-02-09T11:36:41.406Z,103331.61
2023-02-09T11:39:18.422Z,103326.06
2023-02-09T11:42:15.145Z,103325.73
2023-02-09T11:44:55.936Z,103314.64
2023-02-09T11:47:41.791Z,103313.67
2023-02-09T11:50:25.699Z,103311.28
2023-02-09T11:53:01.880Z,103308.03
2023-02-09T11:55:38.684Z,103311.98
2023-02-09T11:58:26.693Z,103304.09
2023-02-09T12:01:14.799Z,103308.02
2023-02-09T12:03:58.374Z,103301.49
2023-02-09T12:06:34.534Z,103300.45
2023-02-09T12:09:10.114Z,103300.27
2023-02-09T12:11:53.904Z,103299.89
2023-02-09T12:14:47.075Z,103296.01
2023-02-09T12:17:24.158Z,103287.73
2023-02-09T12:20:01.173Z,103284.02
2023-02-09T12:22:50.437Z,103284.70
2023-02-09T12:25:37.380Z,103282.80
2023-02-09T12:28:44.221Z,103285.25
2023-02-09T12:31:26.401Z,103287.11
2023-02-09T12:34:38.921Z,103283.96
2023-02-09T12:37:30.506Z,103280.33
2023-02-09T12:40:24.982Z,103281.63
2023-02-09T12:43:29.549Z,103284.48
2023-02-09T12:46:24.598Z,103284.29
2023-02-09T12:49:20.978Z,103276.80
2023-02-09T12:52:13.468Z,103278.34
2023-02-09T12:54:51.179Z,103276.20
2023-02-09T12:57:55.301Z,103273.08
2023-02-09T13:00:41.787Z,103271.55
2023-02-09T13:03:18.368Z,103273.39
2023-02-09T13:05:51.530Z,103272.10
2023-02-09T13:08:29.721Z,103267.51
2023-02-09T13:11:05.693Z,103258.64
2023-02-09T13:13:46.249Z,103258.49
2023-02-09T13:16:55.477Z,103258.17
2023-02-09T13:19:48.331Z,103258.16
2023-02-09T13:22:31.787Z,103258.18
2023-02-09T13:25:14.297Z,103260.05
2023-02-09T13:27:51.417Z,103254.29
2023-02-09T13:30:32.239Z,103252.57
2023-02-09T13:33:13.773Z,103256.77
2023-02-09T13:35:58.372Z,103252.60
2023-02-09T13:38:35.338Z,103254.88
2023-02-09T13:41:10.664Z,103256.83
2023-02-09T13:43:47.513Z,103257.04
2023-02-09T13:46:28.284Z,103252.64
2023-02-09T13:49:13.325Z,103252.09
2023-02-09T13:51:46.302Z,103251.73
2023-02-09T13:54:23.128Z,103248.94
2023-02-09T13:56:55.542Z,103251.39
2023-02-09T13:59:27.813Z,103247.27
2023-02-09T14:02:00.183Z,103243.14
2023-02-09T14:04:36.300Z,103234.91
2023-02-09T14:07:11.688Z,103236.33
2023-02-09T14:09:48.864Z,103242.60
2023-02-09T14:12:45.836Z,103232.52
2023-02-09T14:15:34.410Z,103240.11
2023-02-09T14:18:20.646Z,103237.39
2023-02-09T14:21:15.887Z,103241.05
2023-02-09T14:23:50.101Z,103243.03
2023-02-09T14:26:27.189Z,103240.67
2023-02-09T14:29:18.088Z,103240.06
2023-02-09T14:31:52.921Z,103241.67
2023-02-09T14:34:37.850Z,103245.36
2023-02-09T14:37:31.753Z,103235.84
2023-02-09T14:40:21.395Z,103247.20
2023-02-09T14:43:05.086Z,103243.02
2023-02-09T14:45:43.470Z,103244.59
2023-02-09T14:48:24.261Z,103246.15
2023-02-09T14:50:58.992Z,103249.13
2023-02-09T14:53:34.452Z,103247.91
2023-02-09T14:56:07.524Z,103241.08
2023-02-09T14:58:39.687Z,103244.23
2023-02-09T15:01:13.274Z,103236.94
2023-02-09T15:03:45.824Z,103238.95
2023-02-09T15:06:18.003Z,103241.33
2023-02-09T15:08:50.416Z,103238.06
2023-02-09T15:11:42.932Z,103239.54
2023-02-09T15:14:15.792Z,103235.37
2023-02-09T15:16:48.056Z,103238.06
2023-02-09T15:19:23.412Z,103239.73
2023-02-09T15:22:06.485Z,103240.02
2023-02-09T15:24:39.718Z,103238.08
2023-02-09T15:27:20.938Z,103238.90
2023-02-09T15:29:54.057Z,103242.64
2023-02-09T15:32:27.537Z,103245.85
2023-02-09T15:34:59.942Z,103247.13
2023-02-09T15:37:38.401Z,103250.15
2023-02-09T15:40:45.335Z,103251.05
2023-02-09T15:43:39.118Z,103256.83
2023-02-09T15:46:30.176Z,103248.70
2023-02-09T15:49:03.507Z,103257.98
2023-02-09T15:51:38.767Z,103258.55
2023-02-09T15:54:16.629Z,103262.10
2023-02-09T15:56:49.145Z,103263.17
2023-02-09T15:59:23.448Z,103269.98
2023-02-09T16:01:57.718Z,103270.33
2023-02-09T16:04:31.923Z,103266.88
2023-02-09T16:07:04.264Z,103274.38
2023-02-09T16:09:36.929Z,103268.64
2023-02-09T16:12:11.460Z,103272.83
2023-02-09T16:14:43.804Z,103277.36
2023-02-09T16:17:16.060Z,103274.60
2023-02-09T16:19:49.150Z,103274.27
2023-02-09T16:22:25.235Z,103274.98
2023-02-09T16:24:57.611Z,103277.59
2023-02-09T16:27:30.838Z,103276.37
2023-02-09T16:30:03.136Z,103278.29
2023-02-09T16:32:35.647Z,103278.10
2023-02-09T16:35:16.730Z,103274.10
2023-02-09T16:37:51.807Z,103270.45
2023-02-09T16:40:30.977Z,103273.06
2023-02-09T16:43:04.317Z,103271.84
2023-02-09T16:45:38.891Z,103272.90
2023-02-09T16:48:20.985Z,103275.17
2023-02-09T16:50:55.609Z,103275.53
2023-02-09T16:53:33.917Z,103271.01
2023-02-09T16:56:13.162Z,103270.48
2023-02-09T16:58:46.831Z,103272.03
2023-02-09T17:01:22.756Z,103276.04
2023-02-09T17:03:55.750Z,103277.42
2023-02-09T17:06:31.080Z,103276.54
2023-02-09T17:09:03.385Z,103280.37
2023-02-09T17:11:35.620Z,103269.40
2023-02-09T17:14:08.061Z,103273.92
2023-02-09T17:16:43.450Z,103276.38
2023-02-09T17:19:18.214Z,103276.54
2023-02-09T17:21:50.588Z,103272.38
2023-02-09T17:24:23.079Z,103271.67
2023-02-09T17:26:56.856Z,103274.98
2023-02-09T17:29:31.713Z,103273.77
2023-02-09T17:32:05.582Z,103268.03
2023-02-09T17:34:37.839Z,103271.86
2023-02-09T17:37:16.925Z,103263.88
2023-02-09T17:39:49.144Z,103263.34
2023-02-09T17:42:24.476Z,103258.11
2023-02-09T17:44:57.627Z,103260.20
2023-02-09T17:47:30.695Z,103264.89
2023-02-09T17:50:02.961Z,103264.72
2023-02-09T17:52:35.301Z,103264.73
2023-02-09T17:55:08.186Z,103261.78
2023-02-09T17:57:41.732Z,103262.83
2023-02-09T18:00:16.955Z,103261.78
2023-02-09T18:02:49.359Z,103263.52
2023-02-09T18:05:25.354Z,103268.40
2023-02-09T18:07:56.194Z,103268.56
2023-02-09T18:10:28.667Z,103269.27
2023-02-09T18:13:00.979Z,103268.92
2023-02-09T18:15:35.595Z,103269.10
2023-02-09T18:18:08.096Z,103255.20
2023-02-09T18:20:41.174Z,103267.20
2023-02-09T18:23:16.721Z,103265.12
2023-02-09T18:25:51.214Z,103261.64
2023-02-09T18:28:23.581Z,103267.89
2023-02-09T18:30:55.974Z,103270.85
2023-02-09T18:33:28.363Z,103258.85
2023-02-09T18:36:00.689Z,103266.33
2023-02-09T18:38:32.886Z,103263.02
2023-02-09T18:41:05.423Z,103260.09
2023-02-09T18:43:37.760Z,103259.55
2023-02-09T18:46:12.255Z,103261.66
2023-02-09T18:48:44.598Z,103257.30
2023-02-09T18:51:20.315Z,103257.66
2023-02-09T18:53:53.900Z,103253.13
2023-02-09T18:56:28.440Z,103251.73
2023-02-09T18:59:00.986Z,103251.58
2023-02-09T19:01:33.500Z,103251.05
2023-02-09T19:04:06.090Z,103256.42
2023-02-09T19:06:38.821Z,103253.48
2023-02-09T19:09:11.284Z,103254.17
2023-02-09T19:11:43.633Z,103251.23
2023-02-09T19:14:33.377Z,103246.02
2023-02-09T19:17:06.112Z,103240.63
2023-02-09T19:19:39.098Z,103238.37
2023-02-09T19:22:14.230Z,103236.98
2023-02-09T19:24:47.539Z,103240.98
2023-02-09T19:27:20.407Z,103236.98
2023-02-09T19:29:56.146Z,103242.03
2023-02-09T19:32:29.024Z,103242.21
2023-02-09T19:35:01.453Z,103242.55
2023-02-09T19:37:34.103Z,103242.73
2023-02-09T19:40:17.557Z,103239.27
2023-02-09T19:42:50.125Z,103237.87
2023-02-09T19:45:22.533Z,103228.14
2023-02-09T19:47:54.947Z,103229.52
2023-02-09T19:50:27.354Z,103224.83
2023-02-09T19:52:59.583Z,103229.35
2023-02-09T19:55:31.991Z,103228.48
2023-02-09T19:58:04.545Z,103227.78
2023-02-09T20:00:36.805Z,103225.00
2023-02-09T20:03:09.293Z,103221.19
2023-02-09T20:05:44.569Z,103225.36
2023-02-09T20:08:20.106Z,103228.66
2023-02-09T20:10:52.466Z,103227.09
2023-02-09T20:13:24.940Z,103227.61
2023-02-09T20:15:57.433Z,103221.00
2023-02-09T20:18:29.838Z,103222.39
2023-02-09T20:21:02.180Z,103223.96
2023-02-09T20:23:34.519Z,103222.75
2023-02-09T20:26:13.989Z,103212.66
2023-02-09T20:28:46.416Z,103219.95
2023-02-09T20:31:20.909Z,103207.11
2023-02-09T20:33:53.654Z,103216.31
2023-02-09T20:36:26.388Z,103218.21
2023-02-09T20:38:58.710Z,103215.43
2023-02-09T20:41:30.978Z,103211.45
2023-02-09T20:44:20.599Z,103214.92
2023-02-09T20:47:00.097Z,103213.18
2023-02-09T20:49:37.072Z,103208.66
2023-02-09T20:52:10.119Z,103207.95
2023-02-09T20:54:42.716Z,103213.34
2023-02-09T20:57:14.947Z,103210.89
2023-02-09T20:59:47.281Z,103213.85
2023-02-09T21:02:19.540Z,103214.88
2023-02-09T21:04:52.230Z,103207.40
2023-02-09T21:07:25.549Z,103213.48
2023-02-09T21:09:58.094Z,103210.70
2023-02-09T21:12:30.426Z,103208.27
2023-02-09T21:15:02.711Z,103204.10
2023-02-09T21:17:35.105Z,103197.31
2023-02-09T21:20:07.895Z,103197.48
2023-02-09T21:22:40.189Z,103194.37
2023-02-09T21:25:13.927Z,103196.78
2023-02-09T21:27:46.621Z,103196.45
2023-02-09T21:30:19.080Z,103196.45
2023-02-09T21:32:51.350Z,103195.40
2023-02-09T21:35:23.744Z,103196.79
2023-02-09T21:37:56.172Z,103192.81
2023-02-09T21:40:28.605Z,103196.61
2023-02-09T21:43:00.959Z,103190.18
2023-02-09T21:45:33.535Z,103197.14
2023-02-09T21:48:05.912Z,103193.64
2023-02-09T21:50:38.453Z,103193.98
2023-02-09T21:53:10.963Z,103197.80
2023-02-09T21:55:43.164Z,103198.30
2023-02-09T21:58:15.762Z,103204.05
2023-02-09T22:00:48.669Z,103202.83
2023-02-09T22:03:21.149Z,103205.42
2023-02-09T22:06:00.207Z,103206.80
2023-02-09T22:08:32.565Z,103211.13
2023-02-09T22:11:07.196Z,103207.27
2023-02-09T22:13:39.495Z,103203.45
2023-02-09T22:16:18.277Z,103204.48
2023-02-09T22:18:50.969Z,103207.45
2023-02-09T22:21:23.384Z,103208.34
2023-02-09T22:23:56.114Z,103204.89
2023-02-09T22:26:28.514Z,103198.98
2023-02-09T22:29:00.869Z,103205.06
2023-02-09T22:31:33.297Z,103207.66
2023-02-09T22:34:07.367Z,103205.58
2023-02-09T22:36:40.692Z,103197.77
2023-02-09T22:39:13.044Z,103199.70
2023-02-09T22:41:47.549Z,103197.61
2023-02-09T22:44:20.263Z,103195.53
2023-02-09T22:46:52.645Z,103196.56
2023-02-09T22:49:24.938Z,103194.98
2023-02-09T22:51:57.405Z,103192.38
2023-02-09T22:54:29.718Z,103192.02
2023-02-09T22:57:02.015Z,103183.86
2023-02-09T22:59:36.326Z,103180.90
2023-02-09T23:02:10.484Z,103186.29
2023-02-09T23:04:44.006Z,103180.91
2023-02-09T23:07:16.406Z,103179.52
2023-02-09T23:09:48.669Z,103178.64
2023-02-09T23:12:21.054Z,103181.23
2023-02-09T23:14:54.746Z,103180.71
2023-02-09T23:17:27.237Z,103180.36
2023-02-09T23:19:59.540Z,103171.34
2023-02-09T23:22:31.833Z,103172.02
2023-02-09T23:25:04.122Z,103174.44
2023-02-09T23:27:36.478Z,103175.11
2023-02-09T23:30:10.023Z,103173.20
2023-02-09T23:32:42.411Z,103170.79
2023-02-09T23:35:14.765Z,103170.44
2023-02-09T23:37:47.039Z,103174.09
2023-02-09T23:40:19.921Z,103172.17
2023-02-09T23:42:52.254Z,103172.70
2023-02-09T23:45:24.664Z,103172.02
2023-02-09T23:47:56.917Z,103173.73
2023-02-09T23:50:29.329Z,103174.59
2023-02-09T23:53:01.692Z,103177.01
2023-02-09T23:55:33.950Z,103159.63
2023-02-09T23:58:06.159Z,103170.58
